createdAt,value
2018-07-22T00:02:23.022Z,100849.70
2018-07-22T00:04:51.345Z,100847.20
2018-07-22T00:07:19.618Z,100853.05
2018-07-22T00:09:48.067Z,100848.70
2018-07-22T00:12:16.358Z,100854.75
2018-07-22T00:14:44.814Z,100855.33
2018-07-22T00:17:13.085Z,100861.96
2018-07-22T00:19:41.411Z,100867.47
2018-07-22T00:22:09.973Z,100863.68
2018-07-22T00:24:38.234Z,100865.89
2018-07-22T00:27:06.773Z,100869.83
2018-07-22T00:29:35.092Z,100865.42
2018-07-22T00:32:03.421Z,100863.81
2018-07-22T00:34:31.750Z,100864.62
2018-07-22T00:37:00.028Z,100867.70
2018-07-22T00:39:28.857Z,100866.62
2018-07-22T00:41:57.093Z,100866.92
2018-07-22T00:44:25.389Z,100870.50
2018-07-22T00:46:53.679Z,100873.57
2018-07-22T00:49:21.972Z,100871.95
2018-07-22T00:51:50.296Z,100864.89
2018-07-22T00:54:18.554Z,100866.30
2018-07-22T00:56:46.930Z,100867.37
2018-07-22T00:59:15.211Z,100864.89
2018-07-22T01:01:43.550Z,100865.49
2018-07-22T01:04:11.795Z,100866.04
2018-07-22T01:06:40.091Z,100868.78
2018-07-22T01:09:09.954Z,100871.84
2018-07-22T01:11:38.235Z,100869.08
2018-07-22T01:14:06.493Z,100872.95
2018-07-22T01:16:34.823Z,100876.48
2018-07-22T01:19:03.258Z,100873.80
2018-07-22T01:21:31.820Z,100871.08
2018-07-22T01:24:00.315Z,100871.35
2018-07-22T01:26:28.633Z,100877.65
2018-07-22T01:28:56.868Z,100886.20
2018-07-22T01:31:25.142Z,100883.47
2018-07-22T01:33:53.367Z,100885.11
2018-07-22T01:36:21.696Z,100881.01
2018-07-22T01:38:49.952Z,100887.33
2018-07-22T01:41:18.221Z,100889.27
2018-07-22T01:43:46.518Z,100884.58
2018-07-22T01:46:14.840Z,100893.36
2018-07-22T01:48:43.123Z,100896.38
2018-07-22T01:51:11.365Z,100893.36
2018-07-22T01:53:39.817Z,100896.95
2018-07-22T01:56:08.079Z,100889.83
2018-07-22T01:58:36.344Z,100887.38
2018-07-22T02:01:04.678Z,100887.39
2018-07-22T02:03:33.578Z,100888.47
2018-07-22T02:06:01.948Z,100899.17
2018-07-22T02:08:30.252Z,100893.15
2018-07-22T02:10:58.505Z,100896.44
2018-07-22T02:13:26.856Z,100890.97
2018-07-22T02:15:55.380Z,100885.48
2018-07-22T02:18:23.625Z,100892.04
2018-07-22T02:20:51.913Z,100890.97
2018-07-22T02:23:20.193Z,100892.84
2018-07-22T02:25:48.488Z,100896.12
2018-07-22T02:28:16.746Z,100895.03
2018-07-22T02:30:45.032Z,100895.87
2018-07-22T02:33:13.590Z,100905.17
2018-07-22T02:35:41.917Z,100897.23
2018-07-22T02:38:10.185Z,100894.51
2018-07-22T02:40:38.467Z,100889.30
2018-07-22T02:43:06.774Z,100895.31
2018-07-22T02:45:35.003Z,100898.31
2018-07-22T02:48:03.273Z,100892.30
2018-07-22T02:50:31.553Z,100896.12
2018-07-22T02:52:59.829Z,100895.84
2018-07-22T02:55:28.152Z,100890.94
2018-07-22T02:57:56.505Z,100898.03
2018-07-22T03:00:24.805Z,100894.75
2018-07-22T03:02:53.050Z,100898.04
2018-07-22T03:05:21.381Z,100897.50
2018-07-22T03:07:49.637Z,100898.87
2018-07-22T03:10:17.900Z,100903.52
2018-07-22T03:12:46.193Z,100895.02
2018-07-22T03:15:14.643Z,100901.31
2018-07-22T03:17:42.899Z,100902.41
2018-07-22T03:20:11.269Z,100905.42
2018-07-22T03:22:39.558Z,100904.05
2018-07-22T03:25:07.834Z,100900.49
2018-07-22T03:27:36.103Z,100902.14
2018-07-22T03:30:04.900Z,100905.67
2018-07-22T03:32:33.198Z,100905.14
2018-07-22T03:35:01.617Z,100913.62
2018-07-22T03:37:29.933Z,100917.16
2018-07-22T03:39:58.257Z,100922.34
2018-07-22T03:42:26.534Z,100914.71
2018-07-22T03:44:54.793Z,100913.59
2018-07-22T03:47:23.136Z,100912.52
2018-07-22T03:49:51.403Z,100912.77
2018-07-22T03:52:19.654Z,100914.71
2018-07-22T03:54:47.961Z,100918.27
2018-07-22T03:57:16.289Z,100927.27
2018-07-22T03:59:44.581Z,100926.73
2018-07-22T04:02:12.873Z,100924.83
2018-07-22T04:04:41.151Z,100933.61
2018-07-22T04:07:09.442Z,100940.99
2018-07-22T04:09:39.685Z,100941.53
2018-07-22T04:12:07.986Z,100944.02
2018-07-22T04:14:36.620Z,100944.56
2018-07-22T04:17:04.951Z,100943.48
2018-07-22T04:19:33.320Z,100938.29
2018-07-22T04:22:01.593Z,100935.80
2018-07-22T04:24:43.592Z,100932.81
2018-07-22T04:27:11.864Z,100935.29
2018-07-22T04:29:40.116Z,100933.92
2018-07-22T04:32:08.396Z,100936.11
2018-07-22T04:34:36.664Z,100946.23
2018-07-22T04:37:04.977Z,100941.63
2018-07-22T04:39:33.266Z,100945.68
2018-07-22T04:42:01.500Z,100952.27
2018-07-22T04:44:29.774Z,100947.91
2018-07-22T04:46:58.106Z,100949.00
2018-07-22T04:49:26.388Z,100950.39
2018-07-22T04:51:54.832Z,100962.39
2018-07-22T04:54:23.163Z,100962.39
2018-07-22T04:56:51.621Z,100970.94
2018-07-22T04:59:19.903Z,100969.84
2018-07-22T05:01:48.179Z,100978.03
2018-07-22T05:04:16.487Z,100978.31
2018-07-22T05:06:44.729Z,100978.31
2018-07-22T05:09:13.512Z,100976.70
2018-07-22T05:11:42.145Z,100985.72
2018-07-22T05:14:10.462Z,100985.18
2018-07-22T05:16:38.793Z,100988.16
2018-07-22T05:19:07.456Z,100990.63
2018-07-22T05:21:35.954Z,100990.34
2018-07-22T05:24:04.362Z,100985.41
2018-07-22T05:26:32.716Z,100989.81
2018-07-22T05:29:01.011Z,100986.49
2018-07-22T05:31:29.301Z,100990.04
2018-07-22T05:33:57.596Z,101000.75
2018-07-22T05:36:25.893Z,100994.97
2018-07-22T05:38:54.137Z,100998.23
2018-07-22T05:41:22.417Z,101000.16
2018-07-22T05:43:50.998Z,101010.84
2018-07-22T05:46:19.275Z,101004.52
2018-07-22T05:48:47.579Z,101003.36
2018-07-22T05:51:15.868Z,101002.75
2018-07-22T05:53:44.248Z,100993.67
2018-07-22T05:56:12.524Z,100998.51
2018-07-22T05:58:40.844Z,101005.03
2018-07-22T06:01:09.146Z,101004.92
2018-07-22T06:03:38.348Z,101010.73
2018-07-22T06:06:06.620Z,101014.19
2018-07-22T06:08:34.907Z,101020.02
2018-07-22T06:11:03.177Z,101018.66
2018-07-22T06:13:31.468Z,101022.11
2018-07-22T06:15:59.762Z,101034.42
2018-07-22T06:18:28.134Z,101032.72
2018-07-22T06:20:56.409Z,101035.60
2018-07-22T06:23:24.757Z,101034.64
2018-07-22T06:25:53.068Z,101039.79
2018-07-22T06:28:21.358Z,101035.66
2018-07-22T06:30:49.615Z,101035.92
2018-07-22T06:33:18.128Z,101029.72
2018-07-22T06:35:46.457Z,101029.97
2018-07-22T06:38:14.732Z,101038.02
2018-07-22T06:40:43.001Z,101042.29
2018-07-22T06:43:11.288Z,101043.86
2018-07-22T06:45:39.555Z,101046.83
2018-07-22T06:48:07.803Z,101052.84
2018-07-22T06:50:36.100Z,101057.22
2018-07-22T06:53:04.355Z,101050.81
2018-07-22T06:55:32.625Z,101053.41
2018-07-22T06:58:00.961Z,101055.62
2018-07-22T07:00:29.225Z,101054.98
2018-07-22T07:02:57.593Z,101060.84
2018-07-22T07:05:25.938Z,101064.78
2018-07-22T07:07:54.240Z,101059.92
2018-07-22T07:10:22.571Z,101074.67
2018-07-22T07:12:50.872Z,101076.28
2018-07-22T07:15:19.176Z,101075.09
2018-07-22T07:17:47.440Z,101071.27
2018-07-22T07:20:15.778Z,101075.05
2018-07-22T07:22:44.156Z,101076.42
2018-07-22T07:25:12.513Z,101074.99
2018-07-22T07:27:40.906Z,101072.52
2018-07-22T07:30:09.222Z,101084.34
2018-07-22T07:32:37.790Z,101083.72
2018-07-22T07:35:06.225Z,101078.44
2018-07-22T07:37:34.538Z,101082.48
2018-07-22T07:40:02.895Z,101081.34
2018-07-22T07:42:31.177Z,101081.98
2018-07-22T07:44:59.583Z,101080.78
2018-07-22T07:47:27.821Z,101076.52
2018-07-22T07:49:56.116Z,101085.53
2018-07-22T07:52:24.509Z,101077.60
2018-07-22T07:54:53.786Z,101078.53
2018-07-22T07:57:22.050Z,101079.86
2018-07-22T07:59:53.224Z,101076.87
2018-07-22T08:02:22.641Z,101078.54
2018-07-22T08:04:50.905Z,101081.49
2018-07-22T08:07:19.205Z,101079.62
2018-07-22T08:09:47.712Z,101082.70
2018-07-22T08:12:16.307Z,101082.95
2018-07-22T08:14:45.026Z,101085.95
2018-07-22T08:17:13.432Z,101086.27
2018-07-22T08:19:41.776Z,101087.27
2018-07-22T08:22:10.133Z,101090.20
2018-07-22T08:24:38.570Z,101101.67
2018-07-22T08:27:06.927Z,101096.77
2018-07-22T08:29:35.849Z,101103.61
2018-07-22T08:32:05.546Z,101101.42
2018-07-22T08:34:35.269Z,101098.30
2018-07-22T08:37:03.848Z,101097.94
2018-07-22T08:39:33.112Z,101100.05
2018-07-22T08:42:02.000Z,101091.88
2018-07-22T08:44:30.327Z,101095.25
2018-07-22T08:46:58.607Z,101095.41
2018-07-22T08:49:27.302Z,101100.79
2018-07-22T08:51:55.571Z,101098.81
2018-07-22T08:54:24.098Z,101104.94
2018-07-22T08:56:52.398Z,101106.22
2018-07-22T08:59:21.281Z,101106.44
2018-07-22T09:01:49.584Z,101107.41
2018-07-22T09:04:18.059Z,101106.73
2018-07-22T09:06:46.329Z,101111.20
2018-07-22T09:09:14.760Z,101111.45
2018-07-22T09:11:43.237Z,101109.28
2018-07-22T09:14:11.566Z,101110.16
2018-07-22T09:16:39.851Z,101105.33
2018-07-22T09:19:08.276Z,101107.89
2018-07-22T09:21:36.875Z,101114.14
2018-07-22T09:24:05.206Z,101114.27
2018-07-22T09:26:33.711Z,101121.36
2018-07-22T09:29:01.970Z,101116.04
2018-07-22T09:31:30.317Z,101113.12
2018-07-22T09:33:58.851Z,101114.91
2018-07-22T09:36:27.161Z,101117.63
2018-07-22T09:38:55.479Z,101119.42
2018-07-22T09:41:23.849Z,101121.78
2018-07-22T09:43:52.129Z,101118.34
2018-07-22T09:46:20.387Z,101115.34
2018-07-22T09:51:46.249Z,101122.94
2018-07-22T09:54:14.568Z,101122.66
2018-07-22T09:56:42.824Z,101118.87
2018-07-22T09:59:11.128Z,101129.42
2018-07-22T10:01:39.463Z,101114.91
2018-07-22T10:04:07.811Z,101116.06
2018-07-22T10:06:36.030Z,101124.39
2018-07-22T10:09:06.174Z,101117.69
2018-07-22T10:11:34.546Z,101124.02
2018-07-22T10:14:02.889Z,101106.73
2018-07-22T10:16:31.216Z,101122.34
2018-07-22T10:18:59.527Z,101120.84
2018-07-22T10:21:27.771Z,101110.34
2018-07-22T10:23:56.095Z,101119.29
2018-07-22T10:26:24.391Z,101125.36
2018-07-22T10:28:53.244Z,101122.84
2018-07-22T10:31:21.508Z,101124.41
2018-07-22T10:33:49.780Z,101120.63
2018-07-22T10:36:18.071Z,101115.81
2018-07-22T10:38:46.355Z,101113.69
2018-07-22T10:41:14.620Z,101121.97
2018-07-22T10:43:42.901Z,101108.41
2018-07-22T10:46:11.240Z,101116.88
2018-07-22T10:48:39.525Z,101123.05
2018-07-22T10:51:08.459Z,101120.98
2018-07-22T10:53:36.808Z,101118.91
2018-07-22T10:56:05.519Z,101106.02
2018-07-22T10:58:34.373Z,101112.46
2018-07-22T11:01:02.778Z,101117.75
2018-07-22T11:03:31.261Z,101116.94
2018-07-22T11:05:59.541Z,101119.23
2018-07-22T11:08:28.124Z,101120.27
2018-07-22T11:10:56.455Z,101111.30
2018-07-22T11:13:24.796Z,101119.70
2018-07-22T11:15:53.097Z,101117.45
2018-07-22T11:18:21.384Z,101113.53
2018-07-22T11:20:49.723Z,101118.89
2018-07-22T11:23:18.054Z,101115.71
2018-07-22T11:25:46.372Z,101113.38
2018-07-22T11:28:14.710Z,101119.36
2018-07-22T11:30:43.028Z,101107.96
2018-07-22T11:33:11.540Z,101116.86
2018-07-22T11:35:40.004Z,101114.16
2018-07-22T11:38:08.405Z,101112.95
2018-07-22T11:40:36.701Z,101111.16
2018-07-22T11:43:04.992Z,101115.00
2018-07-22T11:45:33.373Z,101099.89
2018-07-22T11:48:01.633Z,101102.84
2018-07-22T11:50:29.946Z,101097.39
2018-07-22T11:52:58.186Z,101105.42
2018-07-22T11:55:26.600Z,101097.70
2018-07-22T11:57:54.871Z,101101.56
2018-07-22T12:00:23.123Z,101101.09
2018-07-22T12:02:51.472Z,101096.93
2018-07-22T12:05:19.816Z,101098.77
2018-07-22T12:07:48.125Z,101093.47
2018-07-22T12:10:16.374Z,101092.14
2018-07-22T12:12:44.655Z,101102.14
2018-07-22T12:15:12.944Z,101094.89
2018-07-22T12:17:41.196Z,101098.85
2018-07-22T12:20:09.512Z,101099.47
2018-07-22T12:22:37.777Z,101098.39
2018-07-22T12:25:06.324Z,101097.67
2018-07-22T12:27:34.634Z,101098.85
2018-07-22T12:30:02.898Z,101096.16
2018-07-22T12:32:31.192Z,101084.72
2018-07-22T12:34:59.452Z,101091.75
2018-07-22T12:37:27.761Z,101092.27
2018-07-22T12:39:56.033Z,101092.39
2018-07-22T12:42:24.298Z,101087.27
2018-07-22T12:44:52.685Z,101084.44
2018-07-22T12:47:20.990Z,101075.52
2018-07-22T12:49:49.332Z,101076.66
2018-07-22T12:52:17.638Z,101082.17
2018-07-22T12:54:46.045Z,101078.16
2018-07-22T12:57:15.508Z,101078.41
2018-07-22T12:59:44.067Z,101081.16
2018-07-22T13:02:12.915Z,101081.94
2018-07-22T13:04:41.162Z,101074.52
2018-07-22T13:07:09.865Z,101085.16
2018-07-22T13:09:38.138Z,101083.86
2018-07-22T13:12:06.546Z,101081.20
2018-07-22T13:14:34.834Z,101086.94
2018-07-22T13:17:03.185Z,101075.53
2018-07-22T13:19:31.465Z,101067.53
2018-07-22T13:21:59.716Z,101072.77
2018-07-22T13:24:28.020Z,101077.60
2018-07-22T13:26:56.444Z,101073.86
2018-07-22T13:29:24.816Z,101075.32
2018-07-22T13:31:53.114Z,101072.78
2018-07-22T13:34:21.388Z,101073.92
2018-07-22T13:36:49.829Z,101071.70
2018-07-22T13:39:18.107Z,101070.20
2018-07-22T13:41:46.469Z,101076.52
2018-07-22T13:44:14.751Z,101080.41
2018-07-22T13:46:43.043Z,101080.93
2018-07-22T13:49:11.351Z,101080.64
2018-07-22T13:51:39.660Z,101083.27
2018-07-22T13:54:08.034Z,101079.07
2018-07-22T13:56:36.274Z,101077.80
2018-07-22T13:59:04.556Z,101072.45
2018-07-22T14:01:32.905Z,101079.09
2018-07-22T14:04:01.304Z,101089.64
2018-07-22T14:06:29.633Z,101084.87
2018-07-22T14:08:57.895Z,101076.34
2018-07-22T14:11:26.195Z,101085.20
2018-07-22T14:13:54.737Z,101081.91
2018-07-22T14:16:23.067Z,101089.29
2018-07-22T14:18:51.497Z,101083.70
2018-07-22T14:21:20.119Z,101079.12
2018-07-22T14:23:48.386Z,101074.64
2018-07-22T14:26:16.655Z,101076.00
2018-07-22T14:28:44.995Z,101085.99
2018-07-22T14:31:13.250Z,101075.05
2018-07-22T14:33:41.516Z,101081.56
2018-07-22T14:36:09.806Z,101076.23
2018-07-22T14:38:38.096Z,101080.20
2018-07-22T14:41:06.725Z,101077.98
2018-07-22T14:43:34.868Z,101071.37
2018-07-22T14:46:03.207Z,101069.49
2018-07-22T14:48:31.568Z,101069.14
2018-07-22T14:50:59.866Z,101074.09
2018-07-22T14:53:28.285Z,101073.51
2018-07-22T14:55:56.761Z,101073.62
2018-07-22T14:58:25.254Z,101071.29
2018-07-22T15:00:53.542Z,101085.78
2018-07-22T15:03:22.013Z,101069.28
2018-07-22T15:05:50.344Z,101068.34
2018-07-22T15:08:18.684Z,101068.81
2018-07-22T15:10:46.930Z,101063.30
2018-07-22T15:13:15.400Z,101070.72
2018-07-22T15:15:43.723Z,101075.30
2018-07-22T15:18:12.184Z,101074.10
2018-07-22T15:20:40.521Z,101079.72
2018-07-22T15:23:08.826Z,101071.33
2018-07-22T15:25:37.174Z,101071.70
2018-07-22T15:28:05.526Z,101073.65
2018-07-22T15:30:33.810Z,101075.20
2018-07-22T15:33:02.074Z,101073.75
2018-07-22T15:35:30.454Z,101076.09
2018-07-22T15:37:58.737Z,101078.89
2018-07-22T15:40:27.153Z,101083.16
2018-07-22T15:42:55.519Z,101080.08
2018-07-22T15:45:23.857Z,101072.11
2018-07-22T15:47:52.371Z,101067.32
2018-07-22T15:50:20.653Z,101073.38
2018-07-22T15:52:48.957Z,101069.55
2018-07-22T15:55:17.295Z,101069.34
2018-07-22T15:57:45.484Z,101065.78
2018-07-22T16:00:13.818Z,101075.56
2018-07-22T16:02:42.147Z,101074.91
2018-07-22T16:05:10.665Z,101072.56
2018-07-22T16:07:39.244Z,101071.04
2018-07-22T16:10:08.072Z,101070.34
2018-07-22T16:12:36.324Z,101066.94
2018-07-22T16:15:05.303Z,101066.84
2018-07-22T16:17:34.549Z,101063.84
2018-07-22T16:20:03.085Z,101059.91
2018-07-22T16:22:31.616Z,101063.58
2018-07-22T16:24:59.894Z,101059.67
2018-07-22T16:27:28.204Z,101054.66
2018-07-22T16:29:56.602Z,101057.13
2018-07-22T16:32:24.923Z,101060.91
2018-07-22T16:34:53.390Z,101062.50
2018-07-22T16:37:21.815Z,101065.09
2018-07-22T16:39:50.096Z,101062.78
2018-07-22T16:42:18.441Z,101060.98
2018-07-22T16:44:46.735Z,101063.22
2018-07-22T16:47:15.011Z,101063.42
2018-07-22T16:49:43.490Z,101057.67
2018-07-22T16:52:11.747Z,101060.76
2018-07-22T16:54:40.027Z,101052.91
2018-07-22T16:57:08.592Z,101056.73
2018-07-22T16:59:36.852Z,101051.03
2018-07-22T17:02:05.268Z,101058.30
2018-07-22T17:06:55.265Z,101055.91
2018-07-22T17:09:23.630Z,101054.36
2018-07-22T17:11:51.969Z,101055.73
2018-07-22T17:14:20.297Z,101056.99
2018-07-22T17:16:48.952Z,101065.78
2018-07-22T17:19:17.292Z,101057.05
2018-07-22T17:21:45.536Z,101063.12
2018-07-22T17:24:14.780Z,101059.67
2018-07-22T17:26:43.136Z,101059.20
2018-07-22T17:29:11.446Z,101060.03
2018-07-22T17:31:40.243Z,101057.39
2018-07-22T17:34:08.653Z,101057.55
2018-07-22T17:36:36.975Z,101065.44
2018-07-22T17:39:08.056Z,101064.70
2018-07-22T17:41:36.408Z,101057.44
2018-07-22T17:44:04.736Z,101059.17
2018-07-22T17:46:33.104Z,101062.32
2018-07-22T17:49:01.478Z,101058.25
2018-07-22T17:51:29.767Z,101064.30
2018-07-22T17:53:58.120Z,101064.59
2018-07-22T17:56:26.528Z,101068.06
2018-07-22T17:58:54.823Z,101067.08
2018-07-22T18:01:23.133Z,101071.80
2018-07-22T18:03:51.626Z,101064.55
2018-07-22T18:06:19.994Z,101067.06
2018-07-22T18:08:48.310Z,101069.93
2018-07-22T18:11:16.642Z,101085.59
2018-07-22T18:13:45.018Z,101075.48
2018-07-22T18:16:13.280Z,101077.13
2018-07-22T18:18:41.610Z,101075.48
2018-07-22T18:21:09.938Z,101074.84
2018-07-22T18:23:38.242Z,101072.53
2018-07-22T18:26:07.189Z,101077.09
2018-07-22T18:28:35.473Z,101081.17
2018-07-22T18:31:03.804Z,101079.55
2018-07-22T18:33:32.059Z,101085.42
2018-07-22T18:36:00.320Z,101084.55
2018-07-22T18:38:28.910Z,101082.64
2018-07-22T18:40:57.188Z,101089.56
2018-07-22T18:43:25.484Z,101085.09
2018-07-22T18:45:53.726Z,101083.30
2018-07-22T18:48:22.779Z,101087.36
2018-07-22T18:50:51.268Z,101085.84
2018-07-22T18:53:19.735Z,101089.98
2018-07-22T18:55:48.044Z,101100.16
2018-07-22T18:58:16.345Z,101100.92
2018-07-22T19:00:44.608Z,101106.80
2018-07-22T19:03:13.045Z,101109.35
2018-07-22T19:05:41.341Z,101109.31
2018-07-22T19:08:11.290Z,101116.55
2018-07-22T19:10:39.657Z,101117.25
2018-07-22T19:13:07.997Z,101115.23
2018-07-22T19:15:36.284Z,101116.88
2018-07-22T19:18:06.434Z,101120.37
2018-07-22T19:20:41.722Z,101121.82
2018-07-22T19:23:09.992Z,101126.73
2018-07-22T19:25:38.420Z,101130.00
2018-07-22T19:28:06.711Z,101132.38
2018-07-22T19:30:35.688Z,101141.97
2018-07-22T19:33:03.941Z,101138.67
2018-07-22T19:35:32.256Z,101142.47
2018-07-22T19:38:00.562Z,101146.48
2018-07-22T19:40:28.880Z,101145.69
2018-07-22T19:42:57.349Z,101150.53
2018-07-22T19:45:25.603Z,101149.17
2018-07-22T19:47:53.866Z,101153.72
2018-07-22T19:50:22.218Z,101159.37
2018-07-22T19:52:50.482Z,101165.33
2018-07-22T19:55:18.722Z,101165.73
2018-07-22T19:57:47.304Z,101172.59
2018-07-22T20:00:15.717Z,101178.47
2018-07-22T20:02:44.039Z,101170.23
2018-07-22T20:05:12.404Z,101188.04
2018-07-22T20:07:40.693Z,101182.00
2018-07-22T20:10:09.052Z,101178.25
2018-07-22T20:12:37.382Z,101182.44
2018-07-22T20:15:05.632Z,101178.91
2018-07-22T20:17:33.993Z,101184.11
2018-07-22T20:20:02.312Z,101189.85
2018-07-22T20:22:30.662Z,101192.51
2018-07-22T20:24:58.932Z,101192.95
2018-07-22T20:27:27.260Z,101199.27
2018-07-22T20:29:55.543Z,101195.59
2018-07-22T20:32:23.921Z,101202.24
2018-07-22T20:34:52.304Z,101205.55
2018-07-22T20:37:20.654Z,101210.08
2018-07-22T20:39:48.943Z,101205.06
2018-07-22T20:42:17.437Z,101208.09
2018-07-22T20:44:45.746Z,101207.84
2018-07-22T20:47:14.103Z,101211.88
2018-07-22T20:49:42.354Z,101207.38
2018-07-22T20:52:10.709Z,101211.38
2018-07-22T20:54:38.991Z,101210.09
2018-07-22T20:57:07.272Z,101210.13
2018-07-22T20:59:35.568Z,101212.02
2018-07-22T21:02:03.959Z,101215.06
2018-07-22T21:04:32.264Z,101225.34
2018-07-22T21:07:00.602Z,101222.91
2018-07-22T21:09:28.869Z,101229.44
2018-07-22T21:13:08.887Z,101228.52
2018-07-22T21:15:37.184Z,101237.20
2018-07-22T21:18:05.537Z,101240.92
2018-07-22T21:20:33.829Z,101243.24
2018-07-22T21:23:02.109Z,101235.20
2018-07-22T21:25:30.421Z,101236.39
2018-07-22T21:27:58.683Z,101237.49
2018-07-22T21:30:26.931Z,101238.20
2018-07-22T21:32:55.417Z,101236.55
2018-07-22T21:35:23.799Z,101245.45
2018-07-22T21:37:52.050Z,101242.97
2018-07-22T21:40:20.383Z,101247.14
2018-07-22T21:42:48.645Z,101246.32
2018-07-22T21:45:16.902Z,101251.46
2018-07-22T21:47:45.181Z,101250.60
2018-07-22T21:50:13.520Z,101250.33
2018-07-22T21:52:41.825Z,101250.98
2018-07-22T21:55:10.110Z,101251.98
2018-07-22T21:57:38.508Z,101257.11
2018-07-22T22:00:24.114Z,101259.49
2018-07-22T22:02:52.391Z,101255.39
2018-07-22T22:05:20.753Z,101252.98
2018-07-22T22:07:49.049Z,101256.35
2018-07-22T22:10:17.691Z,101256.48
2018-07-22T22:12:45.952Z,101253.94
2018-07-22T22:15:22.980Z,101260.23
2018-07-22T22:17:51.272Z,101263.85
2018-07-22T22:20:19.602Z,101268.91
2018-07-22T22:22:48.316Z,101262.33
2018-07-22T22:25:16.605Z,101269.24
2018-07-22T22:27:45.127Z,101266.91
2018-07-22T22:30:15.050Z,101267.92
2018-07-22T22:32:44.000Z,101271.25
2018-07-22T22:35:12.331Z,101266.05
2018-07-22T22:37:41.551Z,101270.68
2018-07-22T22:40:09.977Z,101271.84
2018-07-22T22:42:38.267Z,101271.03
2018-07-22T22:45:06.650Z,101274.94
2018-07-22T22:47:34.910Z,101266.94
2018-07-22T22:50:03.207Z,101270.27
2018-07-22T22:52:31.604Z,101266.63
2018-07-22T22:54:59.860Z,101266.70
2018-07-22T22:57:28.147Z,101262.94
2018-07-22T22:59:56.429Z,101268.11
2018-07-22T23:02:29.479Z,101267.28
2018-07-22T23:04:57.812Z,101270.09
2018-07-22T23:07:26.091Z,101271.54
2018-07-22T23:09:54.325Z,101270.52
2018-07-22T23:12:22.612Z,101268.37
2018-07-22T23:14:50.868Z,101274.20
2018-07-22T23:17:19.181Z,101272.33
2018-07-22T23:19:47.472Z,101267.95
2018-07-22T23:22:15.967Z,101268.84
2018-07-22T23:24:44.237Z,101268.56
2018-07-22T23:27:12.483Z,101268.09
2018-07-22T23:29:40.829Z,101262.31
2018-07-22T23:32:09.084Z,101267.55
2018-07-22T23:34:38.146Z,101265.59
2018-07-22T23:37:06.781Z,101270.29
2018-07-22T23:39:35.086Z,101269.55
2018-07-22T23:42:03.447Z,101272.31
2018-07-22T23:44:32.064Z,101266.04
2018-07-22T23:47:00.329Z,101272.95
2018-07-22T23:49:28.574Z,101271.89
2018-07-22T23:51:56.902Z,101274.66
2018-07-22T23:54:25.374Z,101276.53
2018-07-22T23:56:53.729Z,101279.81
2018-07-22T23:59:22.187Z,101272.33
